sensor_id;sensor_type;location;lat;lon;timestamp;pressure;altitude;pressure_sealevel;temperature;humidity
13709;BME280;54933;51.908;7.730;2023-03-21T00:00:46;101020.06;;;21.28;65.68
13709;BME280;54933;51.908;7.730;2023-03-21T00:03:13;101013.81;;;21.28;65.58
13709;BME280;54933;51.908;7.730;2023-03-21T00:05:40;101014.66;;;21.28;65.65
13709;BME280;54933;51.908;7.730;2023-03-21T00:08:06;101011.97;;;21.28;65.59
13709;BME280;54933;51.908;7.730;2023-03-21T00:10:31;101007.63;;;21.27;65.68
13709;BME280;54933;51.908;7.730;2023-03-21T00:12:56;101014.66;;;21.28;65.67
13709;BME280;54933;51.908;7.730;2023-03-21T00:15:23;101010.09;;;21.29;65.64
13709;BME280;54933;51.908;7.730;2023-03-21T00:17:50;101011.97;;;21.28;65.69
13709;BME280;54933;51.908;7.730;2023-03-21T00:20:15;101011.97;;;21.28;65.68
13709;BME280;54933;51.908;7.730;2023-03-21T00:22:41;101003.84;;;21.28;65.73
13709;BME280;54933;51.908;7.730;2023-03-21T00:25:08;101006.56;;;21.28;65.84
13709;BME280;54933;51.908;7.730;2023-03-21T00:27:35;101007.63;;;21.27;65.90
13709;BME280;54933;51.908;7.730;2023-03-21T00:30:00;100999.50;;;21.27;65.81
13709;BME280;54933;51.908;7.730;2023-03-21T00:32:25;100997.63;;;21.28;65.95
13709;BME280;54933;51.908;7.730;2023-03-21T00:34:51;100993.03;;;21.28;65.85
13709;BME280;54933;51.908;7.730;2023-03-21T00:37:16;100994.09;;;21.27;65.73
13709;BME280;54933;51.908;7.730;2023-03-21T00:39:43;100993.03;;;21.28;66.23
13709;BME280;54933;51.908;7.730;2023-03-21T00:42:11;100982.22;;;21.28;65.71
13709;BME280;54933;51.908;7.730;2023-03-21T00:44:37;100987.63;;;21.28;65.64
13709;BME280;54933;51.908;7.730;2023-03-21T00:47:05;100987.63;;;21.28;65.96
13709;BME280;54933;51.908;7.730;2023-03-21T00:49:31;100986.81;;;21.28;65.71
13709;BME280;54933;51.908;7.730;2023-03-21T00:52:03;100976.81;;;21.28;65.63
13709;BME280;54933;51.908;7.730;2023-03-21T00:54:28;100976.00;;;21.28;65.66
13709;BME280;54933;51.908;7.730;2023-03-21T00:56:54;100968.72;;;21.28;65.55
13709;BME280;54933;51.908;7.730;2023-03-21T00:59:19;100974.97;;;21.29;65.86
13709;BME280;54933;51.908;7.730;2023-03-21T01:01:45;100966.84;;;21.29;65.97
13709;BME280;54933;51.908;7.730;2023-03-21T01:04:12;100966.00;;;21.28;65.97
13709;BME280;54933;51.908;7.730;2023-03-21T01:06:40;100966.00;;;21.28;65.79
13709;BME280;54933;51.908;7.730;2023-03-21T01:09:08;100966.00;;;21.28;65.63
13709;BME280;54933;51.908;7.730;2023-03-21T01:11:35;100964.78;;;21.24;65.75
13709;BME280;54933;51.908;7.730;2023-03-21T01:14:01;100961.47;;;21.22;65.70
13709;BME280;54933;51.908;7.730;2023-03-21T01:16:26;100958.56;;;21.17;65.77
13709;BME280;54933;51.908;7.730;2023-03-21T01:18:51;100958.56;;;21.17;65.73
13709;BME280;54933;51.908;7.730;2023-03-21T01:21:17;100955.25;;;21.15;65.69
13709;BME280;54933;51.908;7.730;2023-03-21T01:23:43;100956.91;;;21.16;65.97
13709;BME280;54933;51.908;7.730;2023-03-21T01:26:09;100955.25;;;21.15;65.93
13709;BME280;54933;51.908;7.730;2023-03-21T01:28:35;100951.50;;;21.16;66.00
13709;BME280;54933;51.908;7.730;2023-03-21T01:31:03;100954.81;;;21.18;66.04
13709;BME280;54933;51.908;7.730;2023-03-21T01:33:29;100956.69;;;21.18;65.53
13709;BME280;54933;51.908;7.730;2023-03-21T01:35:55;100957.31;;;21.20;65.80
13709;BME280;54933;51.908;7.730;2023-03-21T01:38:21;100955.66;;;21.19;65.98
13709;BME280;54933;51.908;7.730;2023-03-21T01:40:48;100944.63;;;21.20;65.77
13709;BME280;54933;51.908;7.730;2023-03-21T01:43:35;100947.34;;;21.20;65.75
13709;BME280;54933;51.908;7.730;2023-03-21T01:46:21;100945.47;;;21.21;65.82
13709;BME280;54933;51.908;7.730;2023-03-21T01:48:56;100936.31;;;21.22;65.87
13709;BME280;54933;51.908;7.730;2023-03-21T01:51:23;100932.78;;;21.21;65.87
13709;BME280;54933;51.908;7.730;2023-03-21T01:53:50;100937.16;;;21.22;65.77
13709;BME280;54933;51.908;7.730;2023-03-21T01:56:28;100936.31;;;21.22;65.80
13709;BME280;54933;51.908;7.730;2023-03-21T01:59:00;100932.78;;;21.21;65.73
13709;BME280;54933;51.908;7.730;2023-03-21T02:01:29;100928.19;;;21.22;65.82
13709;BME280;54933;51.908;7.730;2023-03-21T02:03:56;100927.38;;;21.21;65.77
13709;BME280;54933;51.908;7.730;2023-03-21T02:09:05;100919.88;;;21.23;65.43
13709;BME280;54933;51.908;7.730;2023-03-21T02:11:34;100918.22;;;21.22;65.78
13709;BME280;54933;51.908;7.730;2023-03-21T02:14:00;100919.03;;;21.23;65.81
13709;BME280;54933;51.908;7.730;2023-03-21T02:16:37;100902.81;;;21.23;65.65
13709;BME280;54933;51.908;7.730;2023-03-21T02:19:31;100908.22;;;21.23;65.68
13709;BME280;54933;51.908;7.730;2023-03-21T02:22:08;100893.69;;;21.24;65.94
13709;BME280;54933;51.908;7.730;2023-03-21T02:27:23;100890.38;;;21.22;66.01
13709;BME280;54933;51.908;7.730;2023-03-21T02:33:18;100890.38;;;21.22;65.76
13709;BME280;54933;51.908;7.730;2023-03-21T02:36:11;100887.44;;;21.23;65.80
13709;BME280;54933;51.908;7.730;2023-03-21T02:44:16;100892.00;;;21.23;65.90
13709;BME280;54933;51.908;7.730;2023-03-21T02:46:49;100891.22;;;21.22;66.02
13709;BME280;54933;51.908;7.730;2023-03-21T02:49:23;100888.50;;;21.22;65.99
13709;BME280;54933;51.908;7.730;2023-03-21T02:51:50;100891.22;;;21.22;66.14
13709;BME280;54933;51.908;7.730;2023-03-21T02:54:18;100892.22;;;21.21;66.01
13709;BME280;54933;51.908;7.730;2023-03-21T02:56:48;100890.38;;;21.22;65.78
13709;BME280;54933;51.908;7.730;2023-03-21T02:59:15;100893.91;;;21.22;66.04
13709;BME280;54933;51.908;7.730;2023-03-21T03:01:42;100893.91;;;21.22;65.89
13709;BME280;54933;51.908;7.730;2023-03-21T03:04:25;100892.84;;;21.23;65.97
13709;BME280;54933;51.908;7.730;2023-03-21T03:07:18;100890.16;;;21.23;66.06
13709;BME280;54933;51.908;7.730;2023-03-21T03:09:58;100880.41;;;21.22;66.49
13709;BME280;54933;51.908;7.730;2023-03-21T03:12:58;100880.41;;;21.22;65.83
13709;BME280;54933;51.908;7.730;2023-03-21T03:16:10;100878.28;;;21.24;65.84
13709;BME280;54933;51.908;7.730;2023-03-21T03:18:56;100877.69;;;21.22;65.96
13709;BME280;54933;51.908;7.730;2023-03-21T03:21:30;100875.00;;;21.22;66.12
13709;BME280;54933;51.908;7.730;2023-03-21T03:24:00;100875.59;;;21.24;66.17
13709;BME280;54933;51.908;7.730;2023-03-21T03:29:08;100876.63;;;21.23;66.24
13709;BME280;54933;51.908;7.730;2023-03-21T03:31:39;100882.03;;;21.23;66.02
13709;BME280;54933;51.908;7.730;2023-03-21T03:34:10;100885.59;;;21.24;65.99
13709;BME280;54933;51.908;7.730;2023-03-21T03:36:40;100869.59;;;21.22;66.02
13709;BME280;54933;51.908;7.730;2023-03-21T03:39:11;100869.38;;;21.24;65.91
13709;BME280;54933;51.908;7.730;2023-03-21T03:41:59;100869.59;;;21.22;66.14
13709;BME280;54933;51.908;7.730;2023-03-21T03:44:26;100868.75;;;21.22;66.04
13709;BME280;54933;51.908;7.730;2023-03-21T03:47:00;100862.50;;;21.21;66.07
13709;BME280;54933;51.908;7.730;2023-03-21T03:49:29;100865.22;;;21.21;66.20
13709;BME280;54933;51.908;7.730;2023-03-21T03:52:18;100873.31;;;21.21;65.88
13709;BME280;54933;51.908;7.730;2023-03-21T03:54:48;100863.56;;;21.20;66.19
13709;BME280;54933;51.908;7.730;2023-03-21T03:57:15;100866.25;;;21.20;66.00
13709;BME280;54933;51.908;7.730;2023-03-21T03:59:43;100861.06;;;21.19;66.06
13709;BME280;54933;51.908;7.730;2023-03-21T04:02:09;100860.84;;;21.20;66.29
13709;BME280;54933;51.908;7.730;2023-03-21T04:04:35;100863.56;;;21.20;66.25
13709;BME280;54933;51.908;7.730;2023-03-21T04:07:01;100860.84;;;21.20;66.02
13709;BME280;54933;51.908;7.730;2023-03-21T04:09:27;100862.50;;;21.21;66.15
13709;BME280;54933;51.908;7.730;2023-03-21T04:11:53;100850.88;;;21.21;66.39
13709;BME280;54933;51.908;7.730;2023-03-21T04:14:19;100857.09;;;21.21;66.20
13709;BME280;54933;51.908;7.730;2023-03-21T04:16:44;100859.19;;;21.19;66.05
13709;BME280;54933;51.908;7.730;2023-03-21T04:19:10;100860.84;;;21.20;66.25
13709;BME280;54933;51.908;7.730;2023-03-21T04:21:36;100854.63;;;21.20;66.26
13709;BME280;54933;51.908;7.730;2023-03-21T04:24:02;100850.06;;;21.20;66.48
13709;BME280;54933;51.908;7.730;2023-03-21T04:26:28;100847.34;;;21.20;66.47
13709;BME280;54933;51.908;7.730;2023-03-21T04:28:57;100844.66;;;21.20;66.15
13709;BME280;54933;51.908;7.730;2023-03-21T04:31:25;100840.06;;;21.21;66.41
13709;BME280;54933;51.908;7.730;2023-03-21T04:33:55;100846.28;;;21.21;66.41
13709;BME280;54933;51.908;7.730;2023-03-21T04:36:20;100838.19;;;21.21;66.17
13709;BME280;54933;51.908;7.730;2023-03-21T04:38:51;100848.78;;;21.23;66.24
13709;BME280;54933;51.908;7.730;2023-03-21T04:41:17;100839.88;;;21.22;66.18
13709;BME280;54933;51.908;7.730;2023-03-21T04:43:42;100842.56;;;21.22;66.15
13709;BME280;54933;51.908;7.730;2023-03-21T04:46:09;100837.16;;;21.22;66.23
13709;BME280;54933;51.908;7.730;2023-03-21T04:48:34;100838.19;;;21.21;66.38
13709;BME280;54933;51.908;7.730;2023-03-21T04:50:59;100835.47;;;21.21;66.30
13709;BME280;54933;51.908;7.730;2023-03-21T04:53:24;100835.47;;;21.21;66.39
13709;BME280;54933;51.908;7.730;2023-03-21T04:55:50;100830.91;;;21.22;66.47
13709;BME280;54933;51.908;7.730;2023-03-21T04:58:15;100821.75;;;21.23;66.37
13709;BME280;54933;51.908;7.730;2023-03-21T05:00:41;100823.44;;;21.24;66.44
13709;BME280;54933;51.908;7.730;2023-03-21T05:03:07;100823.66;;;21.22;66.27
13709;BME280;54933;51.908;7.730;2023-03-21T05:05:34;100824.44;;;21.23;66.45
13709;BME280;54933;51.908;7.730;2023-03-21T05:08:00;100829.06;;;21.22;66.39
13709;BME280;54933;51.908;7.730;2023-03-21T05:10:25;100821.16;;;21.21;66.43
13709;BME280;54933;51.908;7.730;2023-03-21T05:12:50;100821.56;;;21.18;66.39
13709;BME280;54933;51.908;7.730;2023-03-21T05:15:15;100812.44;;;21.19;66.51
13709;BME280;54933;51.908;7.730;2023-03-21T05:17:41;100818.47;;;21.21;66.19
13709;BME280;54933;51.908;7.730;2023-03-21T05:20:08;100813.88;;;21.21;66.37
13709;BME280;54933;51.908;7.730;2023-03-21T05:22:35;100819.03;;;21.23;66.10
13709;BME280;54933;51.908;7.730;2023-03-21T05:25:08;100816.38;;;21.16;65.64
13709;BME280;54933;51.908;7.730;2023-03-21T05:27:34;100818.50;;;21.14;65.85
13709;BME280;54933;51.908;7.730;2023-03-21T05:32:25;100819.97;;;21.10;65.62
13709;BME280;54933;51.908;7.730;2023-03-21T05:34:51;100823.94;;;21.08;65.87
13709;BME280;54933;51.908;7.730;2023-03-21T05:37:16;100826.81;;;21.06;65.53
13709;BME280;54933;51.908;7.730;2023-03-21T05:39:41;100819.16;;;21.03;65.52
13709;BME280;54933;51.908;7.730;2023-03-21T05:42:07;100821.84;;;21.03;65.46
13709;BME280;54933;51.908;7.730;2023-03-21T05:44:32;100826.44;;;21.03;65.54
13709;BME280;54933;51.908;7.730;2023-03-21T05:46:57;100830.19;;;21.02;65.73
13709;BME280;54933;51.908;7.730;2023-03-21T05:49:23;100827.69;;;21.00;65.88
13709;BME280;54933;51.908;7.730;2023-03-21T05:51:48;100823.97;;;21.01;65.93
13709;BME280;54933;51.908;7.730;2023-03-21T05:54:13;100828.31;;;21.02;66.24
13709;BME280;54933;51.908;7.730;2023-03-21T05:56:40;100830.19;;;21.02;66.33
13709;BME280;54933;51.908;7.730;2023-03-21T05:59:06;100839.13;;;21.02;66.33
13709;BME280;54933;51.908;7.730;2023-03-21T06:01:31;100838.06;;;21.03;66.70
13709;BME280;54933;51.908;7.730;2023-03-21T06:03:56;100839.13;;;21.02;66.75
13709;BME280;54933;51.908;7.730;2023-03-21T06:06:22;100834.34;;;21.04;66.85
13709;BME280;54933;51.908;7.730;2023-03-21T06:08:47;100832.44;;;21.05;67.11
13709;BME280;54933;51.908;7.730;2023-03-21T06:11:24;100832.66;;;21.03;66.85
13709;BME280;54933;51.908;7.730;2023-03-21T06:13:50;100841.59;;;21.04;66.43
13709;BME280;54933;51.908;7.730;2023-03-21T06:16:15;100831.84;;;21.03;66.11
13709;BME280;54933;51.908;7.730;2023-03-21T06:18:40;100829.97;;;21.03;66.08
13709;BME280;54933;51.908;7.730;2023-03-21T06:21:06;100844.53;;;21.02;66.30
13709;BME280;54933;51.908;7.730;2023-03-21T06:23:31;100836.41;;;21.02;65.85
13709;BME280;54933;51.908;7.730;2023-03-21T06:25:56;100839.13;;;21.02;66.04
13709;BME280;54933;51.908;7.730;2023-03-21T06:28:21;100841.81;;;21.02;66.00
13709;BME280;54933;51.908;7.730;2023-03-21T06:30:47;100845.38;;;21.03;66.09
13709;BME280;54933;51.908;7.730;2023-03-21T06:33:12;100849.31;;;21.00;66.32
13709;BME280;54933;51.908;7.730;2023-03-21T06:35:37;100841.00;;;21.02;66.76
13709;BME280;54933;51.908;7.730;2023-03-21T06:38:03;100844.31;;;21.04;67.26
13709;BME280;54933;51.908;7.730;2023-03-21T06:40:28;100848.53;;;20.80;66.99
13709;BME280;54933;51.908;7.730;2023-03-21T06:42:53;100857.78;;;19.88;64.43
13709;BME280;54933;51.908;7.730;2023-03-21T06:45:18;100851.97;;;20.10;64.24
13709;BME280;54933;51.908;7.730;2023-03-21T06:47:44;100849.91;;;20.32;64.70
13709;BME280;54933;51.908;7.730;2023-03-21T06:50:09;100854.44;;;20.51;65.53
13709;BME280;54933;51.908;7.730;2023-03-21T06:52:35;100847.13;;;20.65;65.40
13709;BME280;54933;51.908;7.730;2023-03-21T06:55:00;100847.53;;;20.75;65.45
13709;BME280;54933;51.908;7.730;2023-03-21T06:57:25;100841.03;;;20.82;65.55
13709;BME280;54933;51.908;7.730;2023-03-21T06:59:51;100839.38;;;20.88;65.30
13709;BME280;54933;51.908;7.730;2023-03-21T07:02:16;100836.00;;;20.92;65.23
13709;BME280;54933;51.908;7.730;2023-03-21T07:04:41;100833.53;;;20.97;65.24
13709;BME280;54933;51.908;7.730;2023-03-21T07:07:07;100841.19;;;21.00;65.02
13709;BME280;54933;51.908;7.730;2023-03-21T07:09:32;100832.66;;;21.03;65.54
13709;BME280;54933;51.908;7.730;2023-03-21T07:11:57;100837.63;;;21.06;65.01
13709;BME280;54933;51.908;7.730;2023-03-21T07:14:23;100835.56;;;21.08;64.90
13709;BME280;54933;51.908;7.730;2023-03-21T07:16:48;100837.22;;;21.09;64.83
13709;BME280;54933;51.908;7.730;2023-03-21T07:19:13;100838.50;;;21.00;64.21
13709;BME280;54933;51.908;7.730;2023-03-21T07:21:39;100841.63;;;20.97;64.37
13709;BME280;54933;51.908;7.730;2023-03-21T07:24:05;100846.59;;;21.00;64.38
13709;BME280;54933;51.908;7.730;2023-03-21T07:26:30;100836.41;;;21.02;64.09
13709;BME280;54933;51.908;7.730;2023-03-21T07:28:55;100847.22;;;21.02;64.32
13709;BME280;54933;51.908;7.730;2023-03-21T07:31:21;100842.44;;;21.04;64.53
13709;BME280;54933;51.908;7.730;2023-03-21T07:33:51;100836.81;;;21.06;64.57
13709;BME280;54933;51.908;7.730;2023-03-21T07:36:17;100845.72;;;21.06;64.52
13709;BME280;54933;51.908;7.730;2023-03-21T07:38:42;100843.88;;;21.07;64.37
13709;BME280;54933;51.908;7.730;2023-03-21T07:41:08;100838.47;;;21.07;64.50
13709;BME280;54933;51.908;7.730;2023-03-21T07:43:34;100844.72;;;21.07;64.57
13709;BME280;54933;51.908;7.730;2023-03-21T07:46:00;100844.72;;;21.07;64.67
13709;BME280;54933;51.908;7.730;2023-03-21T07:48:25;100847.19;;;21.09;65.00
13709;BME280;54933;51.908;7.730;2023-03-21T07:50:51;100837.22;;;21.09;64.86
13709;BME280;54933;51.908;7.730;2023-03-21T07:53:17;100844.28;;;21.10;65.12
13709;BME280;54933;51.908;7.730;2023-03-21T07:55:42;100838.88;;;21.10;65.01
13709;BME280;54933;51.908;7.730;2023-03-21T07:58:07;100838.88;;;21.10;65.29
13709;BME280;54933;51.908;7.730;2023-03-21T08:00:32;100843.22;;;21.11;65.46
13709;BME280;54933;51.908;7.730;2023-03-21T08:02:58;100846.75;;;21.12;65.59
13709;BME280;54933;51.908;7.730;2023-03-21T08:05:27;100846.53;;;21.13;65.48
13709;BME280;54933;51.908;7.730;2023-03-21T08:07:53;100846.31;;;21.15;65.50
13709;BME280;54933;51.908;7.730;2023-03-21T08:10:18;100843.41;;;21.16;65.86
13709;BME280;54933;51.908;7.730;2023-03-21T08:12:44;100841.31;;;21.18;65.45
13709;BME280;54933;51.908;7.730;2023-03-21T08:15:11;100840.25;;;21.19;65.40
13709;BME280;54933;51.908;7.730;2023-03-21T08:17:37;100843.59;;;21.21;65.33
13709;BME280;54933;51.908;7.730;2023-03-21T08:20:05;100839.88;;;21.22;65.38
13709;BME280;54933;51.908;7.730;2023-03-21T08:22:36;100845.84;;;21.24;64.97
13709;BME280;54933;51.908;7.730;2023-03-21T08:25:05;100838.59;;;21.25;64.85
13709;BME280;54933;51.908;7.730;2023-03-21T08:27:32;100847.53;;;21.25;65.33
13709;BME280;54933;51.908;7.730;2023-03-21T08:29:58;100837.34;;;21.27;65.32
13709;BME280;54933;51.908;7.730;2023-03-21T08:32:24;100838.97;;;21.28;65.29
13709;BME280;54933;51.908;7.730;2023-03-21T08:34:59;100846.03;;;21.29;65.14
13709;BME280;54933;51.908;7.730;2023-03-21T08:37:25;100842.09;;;21.32;65.21
13709;BME280;54933;51.908;7.730;2023-03-21T08:39:51;100828.34;;;21.33;65.26
13709;BME280;54933;51.908;7.730;2023-03-21T08:42:17;100835.41;;;21.34;65.19
13709;BME280;54933;51.908;7.730;2023-03-21T08:44:42;100831.69;;;21.35;65.20
13709;BME280;54933;51.908;7.730;2023-03-21T08:47:08;100832.25;;;21.37;65.29
13709;BME280;54933;51.908;7.730;2023-03-21T08:49:36;100835.59;;;21.39;65.01
13709;BME280;54933;51.908;7.730;2023-03-21T08:52:02;100833.72;;;21.40;65.15
13709;BME280;54933;51.908;7.730;2023-03-21T08:54:27;100830.78;;;21.41;64.95
13709;BME280;54933;51.908;7.730;2023-03-21T08:56:52;100829.97;;;21.41;64.91
13709;BME280;54933;51.908;7.730;2023-03-21T08:59:18;100829.72;;;21.42;64.96
13709;BME280;54933;51.908;7.730;2023-03-21T09:01:43;100829.72;;;21.42;65.13
13709;BME280;54933;51.908;7.730;2023-03-21T09:04:09;100827.66;;;21.44;64.84
13709;BME280;54933;51.908;7.730;2023-03-21T09:06:36;100830.34;;;21.44;64.93
13709;BME280;54933;51.908;7.730;2023-03-21T09:09:02;100823.09;;;21.45;64.87
13709;BME280;54933;51.908;7.730;2023-03-21T09:11:31;100827.66;;;21.44;65.26
13709;BME280;54933;51.908;7.730;2023-03-21T09:13:56;100822.84;;;21.46;65.05
13709;BME280;54933;51.908;7.730;2023-03-21T09:16:21;100823.69;;;21.47;65.19
13709;BME280;54933;51.908;7.730;2023-03-21T09:18:49;100812.66;;;21.48;65.15
13709;BME280;54933;51.908;7.730;2023-03-21T09:21:19;100818.06;;;21.48;65.02
13709;BME280;54933;51.908;7.730;2023-03-21T09:23:47;100810.53;;;21.50;65.06
13709;BME280;54933;51.908;7.730;2023-03-21T09:26:17;100813.25;;;21.50;65.00
13709;BME280;54933;51.908;7.730;2023-03-21T09:28:43;100817.84;;;21.50;65.14
13709;BME280;54933;51.908;7.730;2023-03-21T09:31:10;100818.06;;;21.48;64.94
13709;BME280;54933;51.908;7.730;2023-03-21T09:33:36;100817.84;;;21.50;65.13
13709;BME280;54933;51.908;7.730;2023-03-21T09:36:04;100815.38;;;21.48;65.16
13709;BME280;54933;51.908;7.730;2023-03-21T09:38:31;100810.19;;;21.47;65.27
13709;BME280;54933;51.908;7.730;2023-03-21T09:44:04;100823.69;;;21.47;65.11
13709;BME280;54933;51.908;7.730;2023-03-21T09:46:44;100815.38;;;21.48;65.42
13709;BME280;54933;51.908;7.730;2023-03-21T09:49:19;100815.38;;;21.48;65.54
13709;BME280;54933;51.908;7.730;2023-03-21T09:51:48;100813.47;;;21.49;65.57
13709;BME280;54933;51.908;7.730;2023-03-21T09:54:24;100817.00;;;21.49;65.37
13709;BME280;54933;51.908;7.730;2023-03-21T09:56:54;100814.09;;;21.51;65.64
13709;BME280;54933;51.908;7.730;2023-03-21T09:59:31;100808.69;;;21.51;65.72
13709;BME280;54933;51.908;7.730;2023-03-21T10:01:59;100818.25;;;21.53;65.28
13709;BME280;54933;51.908;7.730;2023-03-21T10:04:25;100818.25;;;21.53;65.68
13709;BME280;54933;51.908;7.730;2023-03-21T10:07:00;100811.16;;;21.52;65.32
13709;BME280;54933;51.908;7.730;2023-03-21T10:09:27;100811.16;;;21.52;65.46
13709;BME280;54933;51.908;7.730;2023-03-21T10:12:04;100812.00;;;21.53;65.33
13709;BME280;54933;51.908;7.730;2023-03-21T10:14:35;100812.84;;;21.53;65.42
13709;BME280;54933;51.908;7.730;2023-03-21T10:19:41;100808.84;;;21.56;65.68
13709;BME280;54933;51.908;7.730;2023-03-21T10:22:10;100795.31;;;21.31;64.94
13709;BME280;54933;51.908;7.730;2023-03-21T10:24:35;100802.53;;;21.37;63.72
13709;BME280;54933;51.908;7.730;2023-03-21T10:27:02;100802.69;;;21.42;63.91
13709;BME280;54933;51.908;7.730;2023-03-21T10:29:31;100803.31;;;21.44;64.18
13709;BME280;54933;51.908;7.730;2023-03-21T10:32:01;100798.97;;;21.43;64.13
13709;BME280;54933;51.908;7.730;2023-03-21T10:34:32;100798.34;;;21.41;64.31
13709;BME280;54933;51.908;7.730;2023-03-21T10:37:01;100806.28;;;21.36;64.16
13709;BME280;54933;51.908;7.730;2023-03-21T10:39:36;100805.06;;;21.32;64.67
13709;BME280;54933;51.908;7.730;2023-03-21T10:42:03;100798.63;;;21.33;64.87
13709;BME280;54933;51.908;7.730;2023-03-21T10:44:32;100797.56;;;21.34;64.98
13709;BME280;54933;51.908;7.730;2023-03-21T10:47:04;100788.72;;;20.77;63.09
13709;BME280;54933;51.908;7.730;2023-03-21T10:49:30;100802.53;;;20.93;63.65
13709;BME280;54933;51.908;7.730;2023-03-21T10:51:58;100801.47;;;21.07;64.23
13709;BME280;54933;51.908;7.730;2023-03-21T10:54:31;100793.13;;;21.15;65.16
13709;BME280;54933;51.908;7.730;2023-03-21T10:57:03;100781.00;;;21.24;65.26
13709;BME280;54933;51.908;7.730;2023-03-21T10:59:40;100778.47;;;21.29;65.97
13709;BME280;54933;51.908;7.730;2023-03-21T11:02:15;100777.00;;;21.33;65.94
13709;BME280;54933;51.908;7.730;2023-03-21T11:04:42;100772.22;;;21.35;66.13
13709;BME280;54933;51.908;7.730;2023-03-21T11:07:12;100778.41;;;21.36;66.16
13709;BME280;54933;51.908;7.730;2023-03-21T11:09:59;100777.16;;;21.38;66.34
13709;BME280;54933;51.908;7.730;2023-03-21T11:12:46;100767.16;;;21.39;66.42
13709;BME280;54933;51.908;7.730;2023-03-21T11:15:36;100766.97;;;21.40;66.33
13709;BME280;54933;51.908;7.730;2023-03-21T11:18:14;100770.47;;;21.41;66.48
13709;BME280;54933;51.908;7.730;2023-03-21T11:20:48;100769.22;;;21.43;66.37
13709;BME280;54933;51.908;7.730;2023-03-21T11:23:14;100760.91;;;21.45;66.35
13709;BME280;54933;51.908;7.730;2023-03-21T11:25:41;100760.69;;;21.46;66.50
13709;BME280;54933;51.908;7.730;2023-03-21T11:28:21;100759.63;;;21.47;66.13
13709;BME280;54933;51.908;7.730;2023-03-21T11:30:54;100757.13;;;21.46;66.28
13709;BME280;54933;51.908;7.730;2023-03-21T11:33:22;100747.56;;;21.50;66.37
13709;BME280;54933;51.908;7.730;2023-03-21T11:36:03;100748.34;;;21.50;66.20
13709;BME280;54933;51.908;7.730;2023-03-21T11:38:37;100740.25;;;21.50;66.12
13709;BME280;54933;51.908;7.730;2023-03-21T11:41:04;100742.94;;;21.50;66.25
13709;BME280;54933;51.908;7.730;2023-03-21T11:43:33;100741.69;;;21.53;66.20
13709;BME280;54933;51.908;7.730;2023-03-21T11:46:05;100730.03;;;21.52;66.27
13709;BME280;54933;51.908;7.730;2023-03-21T11:48:45;100730.03;;;21.52;65.89
13709;BME280;54933;51.908;7.730;2023-03-21T11:51:33;100726.72;;;21.50;65.66
13709;BME280;54933;51.908;7.730;2023-03-21T11:54:14;100726.72;;;21.50;65.66
13709;BME280;54933;51.908;7.730;2023-03-21T11:56:49;100726.16;;;21.48;65.40
13709;BME280;54933;51.908;7.730;2023-03-21T11:59:40;100726.78;;;21.44;65.53
13709;BME280;54933;51.908;7.730;2023-03-21T12:08:18;100717.09;;;21.36;65.50
13709;BME280;54933;51.908;7.730;2023-03-21T12:13:53;100709.38;;;21.40;65.72
13709;BME280;54933;51.908;7.730;2023-03-21T12:19:13;100695.41;;;21.43;65.99
13709;BME280;54933;51.908;7.730;2023-03-21T12:24:24;100677.31;;;21.43;66.57
13709;BME280;54933;51.908;7.730;2023-03-21T12:26:58;100681.66;;;21.44;66.65
13709;BME280;54933;51.908;7.730;2023-03-21T12:29:32;100666.28;;;21.45;67.16
13709;BME280;54933;51.908;7.730;2023-03-21T12:32:17;100671.47;;;21.46;66.96
13709;BME280;54933;51.908;7.730;2023-03-21T12:35:19;100661.25;;;21.48;67.59
13709;BME280;54933;51.908;7.730;2023-03-21T12:37:56;100665.59;;;21.49;67.26
13709;BME280;54933;51.908;7.730;2023-03-21T12:40:36;100662.44;;;21.52;67.32
13709;BME280;54933;51.908;7.730;2023-03-21T12:45:44;100661.44;;;21.53;66.98
13709;BME280;54933;51.908;7.730;2023-03-21T12:48:23;100665.78;;;21.54;66.77
13709;BME280;54933;51.908;7.730;2023-03-21T12:50:53;100660.59;;;21.53;66.53
13709;BME280;54933;51.908;7.730;2023-03-21T12:53:34;100660.66;;;21.46;66.29
13709;BME280;54933;51.908;7.730;2023-03-21T12:56:09;100663.56;;;21.45;66.35
13709;BME280;54933;51.908;7.730;2023-03-21T12:59:07;100661.91;;;21.44;66.39
13709;BME280;54933;51.908;7.730;2023-03-21T13:01:35;100651.94;;;21.44;66.60
13709;BME280;54933;51.908;7.730;2023-03-21T13:04:09;100645.69;;;21.44;66.86
13709;BME280;54933;51.908;7.730;2023-03-21T13:06:40;100643.59;;;21.46;67.04
13709;BME280;54933;51.908;7.730;2023-03-21T13:09:13;100643.59;;;21.46;66.98
13709;BME280;54933;51.908;7.730;2023-03-21T13:11:41;100655.25;;;21.46;67.25
13709;BME280;54933;51.908;7.730;2023-03-21T13:14:12;100641.28;;;21.49;67.53
13709;BME280;54933;51.908;7.730;2023-03-21T13:16:48;100634.81;;;21.50;67.65
13709;BME280;54933;51.908;7.730;2023-03-21T13:19:29;100632.50;;;21.54;67.52
13709;BME280;54933;51.908;7.730;2023-03-21T13:22:18;100626.28;;;21.53;67.42
13709;BME280;54933;51.908;7.730;2023-03-21T13:24:51;100619.81;;;21.54;67.26
13709;BME280;54933;51.908;7.730;2023-03-21T13:29:51;100611.00;;;21.59;67.15
13709;BME280;54933;51.908;7.730;2023-03-21T13:32:30;100608.69;;;21.63;67.29
13709;BME280;54933;51.908;7.730;2023-03-21T13:35:02;100595.78;;;21.65;67.17
13709;BME280;54933;51.908;7.730;2023-03-21T13:37:39;100595.31;;;21.68;66.99
13709;BME280;54933;51.908;7.730;2023-03-21T13:40:23;100588.06;;;21.68;66.99
13709;BME280;54933;51.908;7.730;2023-03-21T13:42:54;100592.25;;;21.64;67.20
13709;BME280;54933;51.908;7.730;2023-03-21T13:45:51;100583.13;;;21.58;67.17
13709;BME280;54933;51.908;7.730;2023-03-21T13:48:40;100579.19;;;21.61;67.39